Aviation Digital Data Service (ADDS)

Output produced by METARs form (1025 UTC 30 May 2015)
found at http://www.aviationweather.gov/adds/metars/
 
KBFD 300953Z AUTO 20003KT 8SM OVC120 18/17 A3014 RMK AO2 SLP190 T01830167
KBFD 300853Z AUTO 19003KT 8SM CLR 18/17 A3014 RMK AO2 SLP188 T01780167 56005
KBFD 300753Z AUTO 20004KT 8SM CLR 18/17 A3014 RMK AO2 SLP188 T01830167
KBFD 300653Z AUTO 18006KT 9SM CLR 19/17 A3014 RMK AO2 SLP190 T01890167
KBFD 300553Z AUTO 18006KT 8SM CLR 19/17 A3015 RMK AO2 SLP194 60000 T01890172 10239 20189 56009
KBFD 300453Z AUTO 16005KT 9SM CLR 19/17 A3016 RMK AO2 SLP196 T01940172 402720072
KBFD 300353Z AUTO VRB05KT 9SM CLR 19/17 A3017 RMK AO2 SLP201 T01940172
KBFD 300253Z AUTO 16005KT 10SM FEW110 19/17 A3018 RMK AO2 SLP205 60000 T01940172 50003
KBFD 300153Z AUTO 15005KT 10SM BKN100 19/17 A3018 RMK AO2 RAE30 SLP208 P0000 T01890172
KBFD 300134Z AUTO 16005KT 10SM BKN095 19/17 A3018 RMK AO2 LTG DSNT E RAE30 P0000 T01890167
KBFD 300109Z AUTO 18008KT 10SM VCTS -RA FEW032 SCT043 OVC095 19/16 A3019 RMK AO2 P0000 T01940161
KBFD 300053Z AUTO 21010G22KT 10SM -RA BKN033 BKN055 OVC110 21/16 A3020 RMK AO2 RAB41 SLP213 P0000 T02110161
KBFD 292353Z AUTO 15005KT 10SM FEW041 BKN120 24/16 A3017 RMK AO2 LTG DSNT W SLP204 T02390156 10272 20239 55009
KBFD 292253Z AUTO 16006KT 10SM FEW042 26/15 A3017 RMK AO2 SLP205 T02560150
KBFD 292153Z AUTO 19005KT 10SM FEW045 SCT055 BKN110 26/14 A3018 RMK AO2 SLP210 T02560144
KBFD 292053Z AUTO VRB05KT 10SM FEW045 SCT060 BKN100 26/14 A3020 RMK AO2 SLP216 T02610139 58016
KBFD 291953Z AUTO 20009KT 160V240 10SM BKN047 BKN055 27/14 A3022 RMK AO2 SLP223 T02670139
KBFD 291853Z AUTO 14009KT 10SM BKN044 26/13 A3024 RMK AO2 SLP229 T02610133
KBFD 291753Z AUTO VRB06KT 10SM FEW042 26/13 A3025 RMK AO2 SLP233 T02560133 10261 20150 58013
KBFD 291653Z AUTO 18008KT 10SM CLR 24/13 A3026 RMK AO2 SLP239 T02440128
KBFD 291553Z AUTO 17009G15KT 10SM CLR 23/12 A3027 RMK AO2 SLP243 T02330117
KBFD 291453Z AUTO 17009G14KT 10SM FEW039 22/11 A3029 RMK AO2 SLP247 T02220106 56007
KBFD 291353Z AUTO 15012KT 10SM CLR 21/10 A3029 RMK AO2 SLP248 T02060100
KBFD 291253Z AUTO 13008KT 10SM CLR 18/11 A3030 RMK AO2 SLP253 T01830106
KBFD 291153Z AUTO 12005KT 10SM CLR 15/11 A3031 RMK AO2 SLP254 7//// T01500111 10150 20072 53001
KBFD 291053Z AUTO 14004KT 8SM CLR 11/10 A3031 RMK AO2 SLP255 T01110100
KBFD 290953Z AUTO 15003KT 4SM BR CLR 08/07 A3031 RMK AO2 SLP258 T00780067
KBFD 290951Z AUTO 16003KT 2 1/2SM BR CLR 08/07 A3031 RMK AO2
KBFD 290943Z AUTO 00000KT 3/4SM BR CLR 08/07 A3031 RMK AO2 VIS 1/4V4 T00780067
KBFD 290935Z AUTO 00000KT 1 1/4SM BR CLR 09/08 A3030 RMK AO2 T00890078
KBFD 290853Z AUTO 00000KT 10SM CLR 09/08 A3030 RMK AO2 SLP253 T00890078 55002
KBFD 290753Z AUTO 00000KT 9SM CLR 09/08 A3029 RMK AO2 SLP252 T00890078
KBFD 290653Z AUTO 00000KT 9SM CLR 10/09 A3029 RMK AO2 SLP252 T01000089
KBFD 290553Z AUTO 00000KT 9SM CLR 11/09 A3030 RMK AO2 SLP254 T01060089 10211 20100 58006
KBFD 290453Z AUTO 00000KT 9SM CLR 11/09 A3031 RMK AO2 SLPNO T01060094 402440106
KBFD 290353Z AUTO 00000KT 10SM CLR 12/10 A3033 RMK AO2 SLPNO T01220100
KBFD 290253Z AUTO 00000KT 10SM CLR 13/11 A3032 RMK AO2 SLP260 T01330106 53011
KBFD 290153Z AUTO 00000KT 10SM CLR 14/11 A3030 RMK AO2 SLP255 T01440106
KBFD 290053Z AUTO 00000KT 10SM CLR 17/12 A3029 RMK AO2 SLP248 T01720117
KBFD 282353Z AUTO 36003KT 10SM CLR 21/09 A3028 RMK AO2 SLP244 T02110094 10244 20211 53001
KBFD 282253Z AUTO 34004KT 10SM CLR 23/09 A3027 RMK AO2 SLP239 T02280089